Van, Turkey
Current Conditions -  °F | °C
As of 11:50 AM on Friday 24 Oct 2014 (Local Time) from LTCI Reporting Station
Few Clouds Few Clouds  
Wind Chill: 57°   Ceiling: Unl
Heat Index: 57°   Visibility: 6mi
Dew Point: 43°   Wind: 7mph
Humidity: 59%   Direction: 300°WNW
Pressure: 30.15"   Gusts: NA
Location:  38.49°N, 43.4°E
Report Text: LTCI 240850Z 30006KT 9999 FEW040 14/06 Q1021 NOSIG
Loading
Personal Weather Stations






























Interactive Weather Map
Tropical Storm Tracking
New forecast layout! Learn more

10-Day Weather Forecast

Advertisements
Track Severe Weather on mobile